createdAt,value
2022-12-08T00:00:12.744Z,12.25
2022-12-08T00:02:39.730Z,11.38
2022-12-08T00:05:25.685Z,11.68
2022-12-08T00:08:11.182Z,10.70
2022-12-08T00:10:48.884Z,11.90
2022-12-08T00:13:16.134Z,11.73
2022-12-08T00:15:43.010Z,12.18
2022-12-08T00:18:09.908Z,11.98
2022-12-08T00:20:36.763Z,12.13
2022-12-08T00:23:04.553Z,12.40
2022-12-08T00:25:32.383Z,12.35
2022-12-08T00:27:59.323Z,13.60
2022-12-08T00:30:26.230Z,12.40
2022-12-08T00:32:53.164Z,14.75
2022-12-08T00:35:20.488Z,16.30
2022-12-08T00:37:48.487Z,12.57
2022-12-08T00:40:15.410Z,13.10
2022-12-08T00:42:42.313Z,11.60
2022-12-08T00:45:09.560Z,11.68
2022-12-08T00:47:36.705Z,11.63
2022-12-08T00:50:04.490Z,11.55
2022-12-08T00:52:31.617Z,10.75
2022-12-08T00:54:58.909Z,9.73
2022-12-08T00:57:25.969Z,10.10
2022-12-08T00:59:52.874Z,10.88
2022-12-08T01:02:19.807Z,10.43
2022-12-08T01:04:46.725Z,11.43
2022-12-08T01:07:13.582Z,11.85
2022-12-08T01:09:40.511Z,10.43
2022-12-08T01:12:07.938Z,10.88
2022-12-08T01:14:34.991Z,10.80
2022-12-08T01:17:01.955Z,11.20
2022-12-08T01:19:28.972Z,11.95
2022-12-08T01:21:55.846Z,11.82
2022-12-08T01:24:22.823Z,11.70
2022-12-08T01:26:50.988Z,11.80
2022-12-08T01:29:18.249Z,11.93
2022-12-08T01:31:45.276Z,11.65
2022-12-08T01:34:12.432Z,11.43
2022-12-08T01:36:39.599Z,12.25
2022-12-08T01:39:10.432Z,12.00
2022-12-08T01:41:38.399Z,11.63
2022-12-08T01:44:11.278Z,12.90
2022-12-08T01:46:43.057Z,15.13
2022-12-08T01:49:18.395Z,13.88
2022-12-08T01:52:14.038Z,13.85
2022-12-08T01:54:53.547Z,13.00
2022-12-08T01:57:43.657Z,11.70
2022-12-08T02:00:17.131Z,11.57
2022-12-08T02:02:53.084Z,12.07
2022-12-08T02:05:23.325Z,15.05
2022-12-08T02:07:51.688Z,17.23
2022-12-08T02:10:21.371Z,21.58
2022-12-08T02:12:51.910Z,15.70
2022-12-08T02:15:19.265Z,11.05
2022-12-08T02:17:54.044Z,11.30
2022-12-08T02:20:21.019Z,11.15
2022-12-08T02:22:47.877Z,10.40
2022-12-08T02:25:23.719Z,12.70
2022-12-08T02:28:03.945Z,12.88
2022-12-08T02:30:50.833Z,12.85
2022-12-08T02:33:48.141Z,11.80
2022-12-08T02:36:44.265Z,12.13
2022-12-08T02:39:21.189Z,10.20
2022-12-08T02:41:52.311Z,10.32
2022-12-08T02:44:35.540Z,10.90
2022-12-08T02:47:10.623Z,12.02
2022-12-08T02:49:37.639Z,11.82
2022-12-08T02:52:24.925Z,11.27
2022-12-08T02:54:56.934Z,12.30
2022-12-08T02:58:04.758Z,12.13
2022-12-08T03:00:46.190Z,12.10
2022-12-08T03:03:43.329Z,11.80
2022-12-08T03:06:12.743Z,11.57
2022-12-08T03:08:58.718Z,11.73
2022-12-08T03:12:09.718Z,11.60
2022-12-08T03:14:38.455Z,16.58
2022-12-08T03:17:07.042Z,11.43
2022-12-08T03:19:41.321Z,12.13
2022-12-08T03:22:10.831Z,11.10
2022-12-08T03:24:40.813Z,10.32
2022-12-08T03:27:09.456Z,9.85
2022-12-08T03:29:36.676Z,10.55
2022-12-08T03:32:23.808Z,10.63
2022-12-08T03:37:19.162Z,9.32
2022-12-08T03:39:46.114Z,9.82
2022-12-08T03:42:13.054Z,9.88
2022-12-08T03:44:39.991Z,11.32
2022-12-08T03:47:06.887Z,9.63
2022-12-08T03:49:34.022Z,10.73
2022-12-08T03:52:00.922Z,10.65
2022-12-08T03:54:27.949Z,9.15
2022-12-08T03:56:54.945Z,10.55
2022-12-08T03:59:21.884Z,11.63
2022-12-08T04:01:49.014Z,10.63
2022-12-08T04:04:15.929Z,9.75
2022-12-08T04:06:42.894Z,11.02
2022-12-08T04:09:09.810Z,10.90
2022-12-08T04:11:36.770Z,9.55
2022-12-08T04:14:03.789Z,10.95
2022-12-08T04:16:30.770Z,10.90
2022-12-08T04:18:57.878Z,11.02
2022-12-08T04:21:24.900Z,10.82
2022-12-08T04:23:54.936Z,11.25
2022-12-08T04:26:26.444Z,12.18
2022-12-08T04:28:53.387Z,13.32
2022-12-08T04:31:20.253Z,7.80
2022-12-08T04:33:47.206Z,7.18
2022-12-08T04:36:14.302Z,5.70
2022-12-08T04:38:41.313Z,4.60
2022-12-08T04:41:08.439Z,3.47
2022-12-08T04:43:36.314Z,4.95
2022-12-08T04:46:07.292Z,5.28
2022-12-08T04:48:34.806Z,3.55
2022-12-08T04:51:01.733Z,3.58
2022-12-08T04:53:28.633Z,3.85
2022-12-08T04:55:55.748Z,4.25
2022-12-08T04:58:22.690Z,3.85
2022-12-08T05:00:49.994Z,4.47
2022-12-08T05:03:17.553Z,10.30
2022-12-08T05:05:44.920Z,12.70
2022-12-08T05:08:12.026Z,12.70
2022-12-08T05:10:39.048Z,12.55
2022-12-08T05:13:06.185Z,13.73
2022-12-08T05:15:33.109Z,12.05
2022-12-08T05:18:00.027Z,9.43
2022-12-08T05:20:27.069Z,9.65
2022-12-08T05:22:54.220Z,9.40
2022-12-08T05:25:21.280Z,10.00
2022-12-08T05:27:48.230Z,9.10
2022-12-08T05:30:15.190Z,9.07
2022-12-08T05:32:42.069Z,9.35
2022-12-08T05:35:09.171Z,10.20
2022-12-08T05:37:36.098Z,9.23
2022-12-08T05:40:03.267Z,10.15
2022-12-08T05:42:30.605Z,9.98
2022-12-08T05:44:57.632Z,8.23
2022-12-08T05:47:24.532Z,6.80
2022-12-08T05:49:51.463Z,7.28
2022-12-08T05:52:18.397Z,6.32
2022-12-08T05:54:45.365Z,7.13
2022-12-08T05:57:12.439Z,8.18
2022-12-08T05:59:39.871Z,6.80
2022-12-08T06:02:06.906Z,5.80
2022-12-08T06:04:34.002Z,4.53
2022-12-08T06:07:00.916Z,4.28
2022-12-08T06:09:27.795Z,4.40
2022-12-08T06:11:54.784Z,5.20
2022-12-08T06:14:21.685Z,5.32
2022-12-08T06:16:48.775Z,5.93
2022-12-08T06:19:16.443Z,6.47
2022-12-08T06:21:43.391Z,5.65
2022-12-08T06:24:10.374Z,7.05
2022-12-08T06:26:37.380Z,6.60
2022-12-08T06:29:05.182Z,7.25
2022-12-08T06:31:32.137Z,7.10
2022-12-08T06:33:59.163Z,7.25
2022-12-08T06:36:28.329Z,6.30
2022-12-08T06:38:55.956Z,6.90
2022-12-08T06:41:22.822Z,6.70
2022-12-08T06:43:49.837Z,7.63
2022-12-08T06:46:19.487Z,7.70
2022-12-08T06:48:47.383Z,7.18
2022-12-08T06:51:17.231Z,7.88
2022-12-08T06:53:44.882Z,6.75
2022-12-08T06:56:13.070Z,7.78
2022-12-08T06:58:40.191Z,8.93
2022-12-08T07:01:09.332Z,9.25
2022-12-08T07:03:36.930Z,8.77
2022-12-08T07:06:04.716Z,9.13
2022-12-08T07:08:33.310Z,10.02
2022-12-08T07:11:00.430Z,10.38
2022-12-08T07:13:27.278Z,8.93
2022-12-08T07:15:54.191Z,8.45
2022-12-08T07:18:21.050Z,9.15
2022-12-08T07:20:47.956Z,8.32
2022-12-08T07:23:15.030Z,8.07
2022-12-08T07:25:42.006Z,9.85
2022-12-08T07:28:10.881Z,8.82
2022-12-08T07:30:39.132Z,9.27
2022-12-08T07:33:06.824Z,9.07
2022-12-08T07:35:35.149Z,9.80
2022-12-08T07:38:03.037Z,10.05
2022-12-08T07:40:29.956Z,10.07
2022-12-08T07:42:56.899Z,11.35
2022-12-08T07:45:31.110Z,10.82
2022-12-08T07:47:58.532Z,11.93
2022-12-08T07:50:25.489Z,12.20
2022-12-08T07:52:52.350Z,12.82
2022-12-08T07:55:19.247Z,13.63
2022-12-08T07:57:46.136Z,14.35
2022-12-08T08:00:13.810Z,16.38
2022-12-08T08:02:42.073Z,16.50
2022-12-08T08:05:09.834Z,16.00
2022-12-08T08:07:37.338Z,14.35
2022-12-08T08:10:06.050Z,14.73
2022-12-08T08:12:33.469Z,12.40
2022-12-08T08:15:01.636Z,13.07
2022-12-08T08:17:29.922Z,11.30
2022-12-08T08:19:57.215Z,11.52
2022-12-08T08:22:25.785Z,13.68
2022-12-08T08:24:53.317Z,12.85
2022-12-08T08:27:21.051Z,14.00
2022-12-08T08:29:48.058Z,17.73
2022-12-08T08:32:14.943Z,17.27
2022-12-08T08:34:41.892Z,19.83
2022-12-08T08:37:08.876Z,20.10
2022-12-08T08:39:35.977Z,21.90
2022-12-08T08:42:02.987Z,21.83
2022-12-08T08:44:29.919Z,20.20
2022-12-08T08:46:56.828Z,22.67
2022-12-08T08:49:23.763Z,21.30
2022-12-08T08:51:50.778Z,16.85
2022-12-08T08:54:17.686Z,13.40
2022-12-08T08:56:44.617Z,15.68
2022-12-08T08:59:11.542Z,15.82
2022-12-08T09:01:38.573Z,16.90
2022-12-08T09:04:05.759Z,21.15
2022-12-08T09:06:32.895Z,20.80
2022-12-08T09:08:59.946Z,17.17
2022-12-08T09:11:26.885Z,16.38
2022-12-08T09:13:54.911Z,17.35
2022-12-08T09:16:22.740Z,15.30
2022-12-08T09:18:50.019Z,16.52
2022-12-08T09:21:25.920Z,16.08
2022-12-08T09:23:55.075Z,16.73
2022-12-08T09:26:22.678Z,14.60
2022-12-08T09:28:51.965Z,16.60
2022-12-08T09:31:20.908Z,15.30
2022-12-08T09:33:48.861Z,15.73
2022-12-08T09:36:15.822Z,14.02
2022-12-08T09:38:42.816Z,15.50
2022-12-08T09:41:23.617Z,14.15
2022-12-08T09:44:38.790Z,14.57
2022-12-08T10:17:51.349Z,10.43
2022-12-08T10:20:21.702Z,10.95
2022-12-08T10:22:55.865Z,12.00
2022-12-08T10:25:35.589Z,13.55
2022-12-08T10:28:02.647Z,13.57
2022-12-08T10:30:32.200Z,14.10
2022-12-08T10:32:59.470Z,14.13
2022-12-08T10:35:45.112Z,14.70
2022-12-08T10:38:26.139Z,14.63
2022-12-08T10:41:07.499Z,15.13
2022-12-08T10:43:37.210Z,15.00
2022-12-08T10:46:17.368Z,15.57
2022-12-08T10:48:52.335Z,14.00
2022-12-08T10:51:37.912Z,12.75
2022-12-08T10:54:06.305Z,13.52
2022-12-08T10:56:33.676Z,14.80
2022-12-08T10:59:19.365Z,14.80
2022-12-08T11:01:49.509Z,14.63
2022-12-08T11:04:20.846Z,15.15
2022-12-08T11:06:49.348Z,15.75
2022-12-08T11:09:16.267Z,16.00
2022-12-08T11:11:52.007Z,15.27
2022-12-08T11:14:25.165Z,15.60
2022-12-08T11:17:02.573Z,15.88
2022-12-08T11:19:29.646Z,15.90
2022-12-08T11:21:56.636Z,16.30
2022-12-08T11:24:29.349Z,15.15
2022-12-08T11:27:07.208Z,15.87
2022-12-08T11:29:35.984Z,14.95
2022-12-08T11:32:11.475Z,15.60
2022-12-08T11:34:49.632Z,12.45
2022-12-08T11:37:24.020Z,12.52
2022-12-08T11:39:55.430Z,12.35
2022-12-08T11:42:26.402Z,14.50
2022-12-08T11:45:06.305Z,12.32
2022-12-08T11:47:56.036Z,15.80
2022-12-08T11:50:29.867Z,16.75
2022-12-08T11:52:58.360Z,16.75
2022-12-08T11:55:42.649Z,17.23
2022-12-08T11:58:38.325Z,15.48
2022-12-08T12:01:05.718Z,15.98
2022-12-08T12:03:38.720Z,15.82
2022-12-08T12:06:18.285Z,17.13
2022-12-08T12:09:08.009Z,18.58
2022-12-08T12:12:16.835Z,15.98
2022-12-08T12:15:14.386Z,18.25
2022-12-08T12:17:53.351Z,19.75
2022-12-08T12:20:42.603Z,17.40
2022-12-08T12:23:19.935Z,20.98
2022-12-08T12:26:00.235Z,23.30
2022-12-08T12:28:37.368Z,22.13
2022-12-08T12:31:12.275Z,24.42
2022-12-08T12:33:39.405Z,28.60
2022-12-08T12:36:08.997Z,28.90
2022-12-08T12:38:57.893Z,24.40
2022-12-08T12:41:45.450Z,22.63
2022-12-08T12:44:12.335Z,23.20
2022-12-08T12:46:50.886Z,24.52
2022-12-08T12:49:39.680Z,25.45
2022-12-08T12:52:18.928Z,23.95
2022-12-08T12:55:11.892Z,24.88
2022-12-08T12:57:40.395Z,24.92
2022-12-08T13:00:10.472Z,24.08
2022-12-08T13:02:45.942Z,23.20
2022-12-08T13:05:25.065Z,22.52
2022-12-08T13:07:58.997Z,22.33
2022-12-08T13:10:37.373Z,22.88
2022-12-08T13:13:06.363Z,21.55
2022-12-08T13:15:55.160Z,19.25
2022-12-08T13:18:54.310Z,18.35
2022-12-08T13:21:23.699Z,20.88
2022-12-08T13:23:51.803Z,20.48
2022-12-08T13:26:28.267Z,18.95
2022-12-08T13:29:04.194Z,18.98
2022-12-08T13:31:53.988Z,18.55
2022-12-08T13:34:45.790Z,18.60
2022-12-08T13:37:13.583Z,19.27
2022-12-08T13:39:40.603Z,18.17
2022-12-08T13:42:13.572Z,18.05
2022-12-08T13:48:21.748Z,17.30
2022-12-08T13:57:12.243Z,18.25
2022-12-08T13:59:44.571Z,17.67
2022-12-08T14:02:26.047Z,17.52
2022-12-08T14:05:17.535Z,18.10
2022-12-08T14:07:42.928Z,18.52
2022-12-08T14:10:35.836Z,19.65
2022-12-08T14:13:11.350Z,18.73
2022-12-08T14:15:40.336Z,19.15
2022-12-08T14:18:23.883Z,20.52
2022-12-08T14:21:20.744Z,20.17
2022-12-08T14:26:15.253Z,18.45
2022-12-08T14:28:45.204Z,18.40
2022-12-08T14:31:14.730Z,17.08
2022-12-08T14:33:42.192Z,17.48
2022-12-08T14:36:10.129Z,18.73
2022-12-08T14:38:37.175Z,18.20
2022-12-08T14:41:06.788Z,17.25
2022-12-08T14:43:34.233Z,18.10
2022-12-08T14:46:05.281Z,17.70
2022-12-08T14:48:36.390Z,16.58
2022-12-08T14:51:24.090Z,17.27
2022-12-08T14:54:01.056Z,17.05
2022-12-08T14:56:38.471Z,17.30
2022-12-08T14:59:36.600Z,22.20
2022-12-08T15:02:25.307Z,17.83
2022-12-08T15:05:01.775Z,17.42
2022-12-08T15:10:17.491Z,16.75
2022-12-08T15:13:00.780Z,18.55
2022-12-08T15:15:29.285Z,18.45
2022-12-08T15:18:18.320Z,17.75
2022-12-08T15:20:53.679Z,18.25
2022-12-08T15:23:29.687Z,16.02
2022-12-08T15:25:57.351Z,16.60
2022-12-08T15:28:30.040Z,17.90
2022-12-08T15:30:58.830Z,17.77
2022-12-08T15:33:26.208Z,17.55
2022-12-08T15:35:53.353Z,15.95
2022-12-08T15:38:31.066Z,16.92
2022-12-08T15:40:58.872Z,16.58
2022-12-08T15:43:26.311Z,18.30
2022-12-08T15:45:59.379Z,15.20
2022-12-08T15:48:29.469Z,16.48
2022-12-08T15:50:56.724Z,16.13
2022-12-08T15:53:23.778Z,16.20
2022-12-08T15:56:25.699Z,16.10
2022-12-08T15:58:53.567Z,15.55
2022-12-08T16:01:20.909Z,15.40
2022-12-08T16:09:38.777Z,17.00
2022-12-08T16:13:26.683Z,17.23
2022-12-08T16:15:51.304Z,17.75
2022-12-08T16:18:24.072Z,17.60
2022-12-08T16:29:08.058Z,21.50
2022-12-08T16:31:35.340Z,22.80
2022-12-08T16:34:02.283Z,20.42
2022-12-08T16:36:29.226Z,17.27
2022-12-08T16:38:56.262Z,16.80
2022-12-08T16:41:41.726Z,16.10
2022-12-08T16:44:08.591Z,16.83
2022-12-08T16:46:36.139Z,15.55
2022-12-08T16:49:04.441Z,17.52
2022-12-08T16:51:31.347Z,16.33
2022-12-08T16:53:58.654Z,16.88
2022-12-08T16:56:32.657Z,16.50
2022-12-08T16:59:02.236Z,16.30
2022-12-08T17:01:29.638Z,17.10
2022-12-08T17:04:22.974Z,16.83
2022-12-08T17:06:43.426Z,16.42
2022-12-08T17:09:10.401Z,16.40
2022-12-08T17:11:43.077Z,15.35
2022-12-08T17:14:14.763Z,15.27
2022-12-08T17:16:42.289Z,15.82
2022-12-08T17:19:09.388Z,16.25
2022-12-08T17:21:36.369Z,16.08
2022-12-08T17:24:03.696Z,15.60
2022-12-08T17:26:30.713Z,16.20
2022-12-08T17:29:01.518Z,17.13
2022-12-08T17:31:31.071Z,16.90
2022-12-08T17:34:03.139Z,17.08
2022-12-08T17:36:30.363Z,16.27
2022-12-08T17:38:59.173Z,18.52
2022-12-08T17:41:26.082Z,17.92
2022-12-08T17:43:52.980Z,16.83
2022-12-08T17:46:20.790Z,16.80
2022-12-08T17:48:47.931Z,18.00
2022-12-08T17:51:15.890Z,15.98
2022-12-08T17:53:42.950Z,16.48
2022-12-08T17:56:21.265Z,17.05
2022-12-08T17:58:54.288Z,17.85
2022-12-08T18:01:22.834Z,17.73
2022-12-08T18:03:49.976Z,18.02
2022-12-08T18:06:20.589Z,18.58
2022-12-08T18:08:47.833Z,18.15
2022-12-08T18:11:18.700Z,18.05
2022-12-08T18:13:46.902Z,15.98
2022-12-08T18:16:14.819Z,16.17
2022-12-08T18:18:42.075Z,16.33
2022-12-08T18:21:09.788Z,16.92
2022-12-08T18:23:41.196Z,15.13
2022-12-08T18:26:10.110Z,15.88
2022-12-08T18:28:38.194Z,16.52
2022-12-08T18:31:10.693Z,17.90
2022-12-08T18:33:40.450Z,16.65
2022-12-08T18:36:13.447Z,17.58
2022-12-08T18:38:40.607Z,16.80
2022-12-08T18:41:10.244Z,17.55
2022-12-08T18:43:37.852Z,15.90
2022-12-08T18:46:10.587Z,15.68
2022-12-08T18:48:41.697Z,15.85
2022-12-08T18:51:11.556Z,16.33
2022-12-08T18:53:39.910Z,16.30
2022-12-08T18:56:07.899Z,15.93
2022-12-08T18:58:35.458Z,17.75
2022-12-08T19:01:02.439Z,16.58
2022-12-08T19:03:29.662Z,17.63
2022-12-08T19:06:04.132Z,16.85
2022-12-08T19:08:31.651Z,16.20
2022-12-08T19:10:59.563Z,15.35
2022-12-08T19:13:27.436Z,16.55
2022-12-08T19:15:54.808Z,15.02
2022-12-08T19:18:21.884Z,14.80
2022-12-08T19:20:48.937Z,16.38
2022-12-08T19:23:16.345Z,16.55
2022-12-08T19:25:43.315Z,15.60
2022-12-08T19:28:10.245Z,15.57
2022-12-08T19:30:37.198Z,15.88
2022-12-08T19:33:04.084Z,16.70
2022-12-08T19:35:31.112Z,15.88
2022-12-08T19:37:58.063Z,15.82
2022-12-08T19:40:43.306Z,16.38
2022-12-08T19:43:33.044Z,16.63
2022-12-08T19:46:00.161Z,21.30
2022-12-08T19:48:27.374Z,27.50
2022-12-08T19:50:54.288Z,29.73
2022-12-08T19:53:21.713Z,29.52
2022-12-08T19:55:48.712Z,27.00
2022-12-08T19:58:16.334Z,24.80
2022-12-08T20:00:44.290Z,25.08
2022-12-08T20:03:16.269Z,21.17
2022-12-08T20:05:44.238Z,21.40
2022-12-08T20:08:11.270Z,21.30
2022-12-08T20:10:41.548Z,21.33
2022-12-08T20:13:28.710Z,18.92
2022-12-08T20:20:49.729Z,18.40
2022-12-08T20:23:17.948Z,18.60
2022-12-08T20:25:46.094Z,19.23
2022-12-08T20:28:13.044Z,19.00
2022-12-08T20:30:41.888Z,17.17
2022-12-08T20:33:12.560Z,17.58
2022-12-08T20:35:39.628Z,18.77
2022-12-08T20:38:06.549Z,18.48
2022-12-08T20:40:33.504Z,18.27
2022-12-08T20:43:01.273Z,21.48
2022-12-08T20:45:28.307Z,20.02
2022-12-08T20:47:55.377Z,16.83
2022-12-08T20:50:22.309Z,17.58
2022-12-08T20:52:49.309Z,18.42
2022-12-08T20:55:16.598Z,18.35
2022-12-08T20:57:43.610Z,18.15
2022-12-08T21:00:11.564Z,17.35
2022-12-08T21:02:45.057Z,17.88
2022-12-08T21:05:14.292Z,17.40
2022-12-08T21:07:41.695Z,17.05
2022-12-08T21:10:09.928Z,17.90
2022-12-08T21:12:37.206Z,16.40
2022-12-08T21:15:04.674Z,16.95
2022-12-08T21:17:31.825Z,18.30
2022-12-08T21:19:58.763Z,25.38
2022-12-08T21:22:25.755Z,20.85
2022-12-08T21:24:52.748Z,18.73
2022-12-08T21:27:19.650Z,18.63
2022-12-08T21:29:46.721Z,18.38
2022-12-08T21:32:13.714Z,18.30
2022-12-08T21:34:40.975Z,16.85
2022-12-08T21:37:08.026Z,16.05
2022-12-08T21:39:35.292Z,18.08
2022-12-08T21:42:22.691Z,17.55
2022-12-08T21:44:50.236Z,17.58
2022-12-08T21:47:17.337Z,17.50
2022-12-08T21:49:44.433Z,17.05
2022-12-08T21:52:11.363Z,17.83
2022-12-08T21:54:38.443Z,17.67
2022-12-08T21:57:05.319Z,18.02
2022-12-08T21:59:33.141Z,17.23
2022-12-08T22:02:00.309Z,16.75
2022-12-08T22:04:28.027Z,18.60
2022-12-08T22:06:55.137Z,16.98
2022-12-08T22:09:22.182Z,16.17
2022-12-08T22:11:49.529Z,17.73
2022-12-08T22:14:16.489Z,17.23
2022-12-08T22:16:44.372Z,16.50
2022-12-08T22:19:12.517Z,17.38
2022-12-08T22:21:40.273Z,16.90
2022-12-08T22:24:07.554Z,16.92
2022-12-08T22:26:34.447Z,16.75
2022-12-08T22:29:01.811Z,16.88
2022-12-08T22:31:28.797Z,16.80
2022-12-08T22:33:56.185Z,16.40
2022-12-08T22:36:25.163Z,15.50
2022-12-08T22:38:53.513Z,15.80
2022-12-08T22:41:21.676Z,15.57
2022-12-08T22:43:49.763Z,14.85
2022-12-08T22:46:20.129Z,14.20
2022-12-08T22:48:47.528Z,15.40
2022-12-08T22:51:14.790Z,15.73
2022-12-08T22:53:41.855Z,15.27
2022-12-08T22:56:11.021Z,15.13
2022-12-08T22:58:40.104Z,13.40
2022-12-08T23:01:08.116Z,13.75
2022-12-08T23:03:35.402Z,14.68
2022-12-08T23:06:11.657Z,14.13
2022-12-08T23:08:38.784Z,14.23
2022-12-08T23:11:06.174Z,14.10
2022-12-08T23:13:33.316Z,14.52
2022-12-08T23:16:00.303Z,13.70
2022-12-08T23:18:27.311Z,15.30
2022-12-08T23:20:54.418Z,15.45
2022-12-08T23:23:21.634Z,14.65
2022-12-08T23:25:48.491Z,15.98
2022-12-08T23:28:15.404Z,14.50
2022-12-08T23:30:42.672Z,15.05
2022-12-08T23:33:09.777Z,15.75
2022-12-08T23:35:36.851Z,15.38
2022-12-08T23:38:04.242Z,15.77
2022-12-08T23:40:31.475Z,15.07
2022-12-08T23:42:58.618Z,15.40
2022-12-08T23:45:26.083Z,15.55
2022-12-08T23:47:53.167Z,16.35
2022-12-08T23:50:20.179Z,16.17
2022-12-08T23:52:47.054Z,16.10
2022-12-08T23:55:14.142Z,16.08
2022-12-08T23:57:41.129Z,16.20
